Thor Heyerdahl — DKQH — position and weather

sailwx.info

Track history (hours):
 
Tides and Currents Weather Stations Pressure Air Temp Water Temp Dewpoint Dewpoint Depression Visibility Wind Speed Wind Dir Waves Ship Positions

Thor Heyerdahl

Last reported at 2017-Jul-28 06:30 UTC. Time now 2017-Jul-28 06:38 UTC.
Position N 60°00' E 024°57'.

beam 6.5 m; draft 2.2 m.

Type: Sailing vessel. MMSI: 211232340.

Date/timePositionNaut miles runAvg speedWind from/ knotsBaromVisibWave heightAir tempDewpointWater temp
2017-Jul-28 06:30N 60°00' E 024°57'1 2.3
2017-Jul-28 06:00N 59°59' E 024°57'1 2.2
2017-Jul-28 05:31N 59°58' E 024°57'1 2.2
2017-Jul-28 05:00N 59°57' E 024°57'1 2.1
2017-Jul-28 04:30N 59°56' E 024°57'1 2.0
2017-Jul-28 04:00N 59°55' E 024°57'1 2.2
2017-Jul-28 03:30N 59°54' E 024°57'1 2.8
2017-Jul-28 03:00N 59°53' E 024°57'1 2.7
2017-Jul-28 02:31N 59°51' E 024°58'1 2.5
2017-Jul-28 02:00N 59°50' E 024°58'2 4.7
2017-Jul-28 01:30N 59°48' E 024°56'2 4.3
2017-Jul-28 01:00N 59°47' E 024°52'2 4.4
2017-Jul-28 00:30N 59°46' E 024°48'2 4.2
2017-Jul-28 00:01N 59°45' E 024°44'2 4.1
2017-Jul-27 23:31N 59°45' E 024°41'2 4.0
2017-Jul-27 23:00N 59°44' E 024°37'2 4.3
2017-Jul-27 22:30N 59°43' E 024°33'2 4.3
2017-Jul-27 22:01N 59°42' E 024°30'2 4.1
2017-Jul-27 21:30N 59°40' E 024°27'2 4.2
2017-Jul-27 21:00N 59°39' E 024°23'2 4.6
2017-Jul-27 20:31N 59°38' E 024°19'2 4.5
2017-Jul-27 20:00N 59°36' E 024°16'3 5.2
2017-Jul-27 19:31N 59°35' E 024°12'2 4.6
2017-Jul-27 19:00N 59°33' E 024°09'3 5.5
2017-Jul-27 18:30N 59°31' E 024°05'3 5.9
2017-Jul-27 18:00N 59°29' E 024°01'3 5.7
2017-Jul-27 17:30N 59°27' E 023°57'3 5.5
2017-Jul-27 17:00N 59°25' E 023°53'2 4.9
2017-Jul-27 16:30N 59°24' E 023°49'2 4.8
2017-Jul-27 16:01N 59°22' E 023°46'2 4.5
2017-Jul-27 15:31N 59°20' E 023°43'3 5.0
2017-Jul-27 15:00N 59°19' E 023°39'5 5.0
2017-Jul-27 14:00N 59°16' E 023°31'2 4.7
2017-Jul-27 13:31N 59°14' E 023°27'2 4.7
2017-Jul-27 13:00N 59°14' E 023°23'3 5.2
2017-Jul-27 12:31N 59°13' E 023°18'2 5.0
2017-Jul-27 12:00N 59°11' E 023°14'2 4.7
2017-Jul-27 11:30N 59°10' E 023°10'2 4.8
2017-Jul-27 11:00N 59°09' E 023°06'2 4.4
2017-Jul-27 10:30N 59°07' E 023°03'2 5.0
2017-Jul-27 10:01N 59°05' E 023°02'3 5.1
2017-Jul-27 09:30N 59°03' E 023°04'3 5.1
2017-Jul-27 09:00N 59°00' E 023°07'0 0.8
2017-Jul-27 08:30N 59°00' E 023°07'0 0.0
2017-Jul-27 08:00N 59°00' E 023°07'0 0.0
2017-Jul-27 07:28N 59°00' E 023°07'0 0.0
2017-Jul-27 07:00N 59°00' E 023°07'0 0.0
2017-Jul-27 06:24N 59°00' E 023°07'0 0.0
2017-Jul-27 06:00N 59°00' E 023°07'0 0.0
2017-Jul-27 05:30N 59°00' E 023°07'0 0.0
2017-Jul-27 04:57N 59°00' E 023°07'0 0.0
2017-Jul-27 04:27N 59°00' E 023°07'0 0.0
2017-Jul-27 03:57N 59°00' E 023°07'0 0.0
2017-Jul-27 03:24N 59°00' E 023°07'0 0.0
2017-Jul-27 02:52N 59°00' E 023°07'0 0.0
2017-Jul-27 02:25N 59°00' E 023°07'0 0.0
2017-Jul-27 02:00N 59°00' E 023°07'0 0.0
2017-Jul-27 01:24N 59°00' E 023°07'0 0.0
2017-Jul-27 01:00N 59°00' E 023°07'0 0.0
2017-Jul-27 00:29N 59°00' E 023°07'0 0.0
2017-Jul-27 00:00N 59°00' E 023°07'0 0.0
2017-Jul-26 23:24N 59°00' E 023°07'0 0.0
2017-Jul-26 22:51N 59°00' E 023°07'0 0.0
2017-Jul-26 22:30N 59°00' E 023°07'0 0.0
2017-Jul-26 22:00N 59°00' E 023°07'0 0.0
2017-Jul-26 21:30N 59°00' E 023°07'0 0.0
2017-Jul-26 20:58N 59°00' E 023°07'0 0.0
2017-Jul-26 20:30N 59°00' E 023°07'0 0.0
2017-Jul-26 19:58N 59°00' E 023°07'0 0.0
2017-Jul-26 19:25N 59°00' E 023°07'0 0.0
2017-Jul-26 19:00N 59°00' E 023°07'0 0.0
2017-Jul-26 18:27N 59°00' E 023°07'0 0.0
2017-Jul-26 17:54N 59°00' E 023°07'0 0.0
2017-Jul-26 17:27N 59°00' E 023°07'0 0.0
2017-Jul-26 16:57N 59°00' E 023°07'0 0.0
2017-Jul-26 16:31N 59°00' E 023°07'0 0.3
2017-Jul-26 16:00N 59°00' E 023°07'2 4.4
2017-Jul-26 15:30N 58°58' E 023°07'2 4.6
2017-Jul-26 15:00N 58°56' E 023°08'4 4.2
2017-Jul-26 14:00N 58°52' E 023°11'2 4.2
2017-Jul-26 13:31N 58°50' E 023°12'2 4.2
2017-Jul-26 13:00N 58°48' E 023°13'2 4.3
2017-Jul-26 12:31N 58°46' E 023°15'2 4.2
2017-Jul-26 12:01N 58°44' E 023°16'3 4.8
2017-Jul-26 11:29N 58°41' E 023°17'  
2017-Jul-24 01:12N 56°57' E 024°06'0 0.0
2017-Jul-24 00:58N 56°57' E 024°06'0 0.0
2017-Jul-24 00:24N 56°57' E 024°06'0 0.0
2017-Jul-24 00:00N 56°57' E 024°06'0 0.0
2017-Jul-23 23:25N 56°57' E 024°06'0 0.0
2017-Jul-23 22:57N 56°57' E 024°06'0 0.0
2017-Jul-23 22:28N 56°57' E 024°06'0 0.0
2017-Jul-23 21:58N 56°57' E 024°06'0 0.0
2017-Jul-23 21:26N 56°57' E 024°06'0 0.0
2017-Jul-23 20:59N 56°57' E 024°06'35 2.3
2017-Jul-23 05:49N 57°22' E 023°22'10 2.5
2017-Jul-23 01:45N 57°30' E 023°09'1 3.2
2017-Jul-23 01:30N 57°31' E 023°08'3 3.6
2017-Jul-23 00:40N 57°33' E 023°04'1 4.1
2017-Jul-23 00:25N 57°34' E 023°03'2 4.0
2017-Jul-23 00:00N 57°35' E 023°01'2 4.9
2017-Jul-22 23:30N 57°37' E 022°59'2 4.6
2017-Jul-22 23:00N 57°39' E 022°56'2 4.0
2017-Jul-22 22:30N 57°40' E 022°53'2 3.6
2017-Jul-22 22:00N 57°42' E 022°51'2 3.4
2017-Jul-22 21:30N 57°43' E 022°49'1 2.9
2017-Jul-22 21:00N 57°44' E 022°47'1 1.6
2017-Jul-22 20:30N 57°44' E 022°46'1 2.3
2017-Jul-22 20:00N 57°45' E 022°45'1 2.9
2017-Jul-22 19:31N 57°46' E 022°43'1 2.8
2017-Jul-22 19:00N 57°47' E 022°41'169 4.9
2017-Jul-21 08:24N 56°35' E 017°59'2 5.5
2017-Jul-21 08:00N 56°33' E 017°56'3 5.6
2017-Jul-21 07:30N 56°32' E 017°52'3 5.4
2017-Jul-21 07:01N 56°30' E 017°48'3 5.3
2017-Jul-21 06:30N 56°28' E 017°44'3 5.1
2017-Jul-21 06:00N 56°27' E 017°41'2 4.9
2017-Jul-21 05:30N 56°25' E 017°37'2 4.8
2017-Jul-21 05:01N 56°24' E 017°34'2 4.9
2017-Jul-21 04:30N 56°22' E 017°30'3 5.4
2017-Jul-21 04:00N 56°21' E 017°26'3 5.7
2017-Jul-21 03:27N 56°19' E 017°22'3 5.6
2017-Jul-21 03:01N 56°17' E 017°18'3 6.0
2017-Jul-21 02:31N 56°15' E 017°14'3 5.8
2017-Jul-21 02:00N 56°13' E 017°10'3 5.7
2017-Jul-21 01:30N 56°12' E 017°06'3 5.7
2017-Jul-21 01:00N 56°10' E 017°02'3 5.8
2017-Jul-21 00:30N 56°09' E 016°57'3 5.9
2017-Jul-21 00:00N 56°07' E 016°53'3 6.1
2017-Jul-20 23:30N 56°05' E 016°48'3 6.1
2017-Jul-20 23:00N 56°04' E 016°44'3 6.0
2017-Jul-20 22:30N 56°02' E 016°39'3 5.9
2017-Jul-20 22:00N 56°00' E 016°35'3 5.8
2017-Jul-20 21:30N 55°59' E 016°31'3 5.7
2017-Jul-20 21:00N 55°57' E 016°27'3 5.6
2017-Jul-20 20:30N 55°55' E 016°23'3 5.6
2017-Jul-20 20:00N 55°54' E 016°19'3 5.6
2017-Jul-20 19:30N 55°52' E 016°15'3 5.5
2017-Jul-20 19:00N 55°50' E 016°11'3 5.3
2017-Jul-20 18:30N 55°48' E 016°07'2 4.8
2017-Jul-20 18:00N 55°47' E 016°04'2 4.6
2017-Jul-20 17:30N 55°46' E 016°01'2 4.5
2017-Jul-20 17:00N 55°44' E 015°57'2 4.5
2017-Jul-20 16:30N 55°43' E 015°54'2 4.4
2017-Jul-20 16:00N 55°42' E 015°51'2 4.5
2017-Jul-20 15:30N 55°40' E 015°48'2 4.6
2017-Jul-20 15:01N 55°39' E 015°44'5 4.6
2017-Jul-20 14:00N 55°36' E 015°38'2 4.3
2017-Jul-20 13:30N 55°35' E 015°35'2 4.1
2017-Jul-20 13:00N 55°34' E 015°31'2 4.3
2017-Jul-20 12:30N 55°33' E 015°28'2 4.7
2017-Jul-20 12:00N 55°32' E 015°25'2 4.8
2017-Jul-20 11:30N 55°30' E 015°21'2 4.7
2017-Jul-20 11:00N 55°29' E 015°18'2 4.7
2017-Jul-20 10:30N 55°28' E 015°14'2 4.9
2017-Jul-20 10:00N 55°26' E 015°11'2 4.9
2017-Jul-20 09:31N 55°25' E 015°07'2 4.9
2017-Jul-20 09:00N 55°24' E 015°04'2 4.6
2017-Jul-20 08:31N 55°23' E 015°00'2 5.0
2017-Jul-20 08:01N 55°21' E 014°56'3 5.5
2017-Jul-20 07:30N 55°20' E 014°52'3 5.6
2017-Jul-20 07:00N 55°19' E 014°48'3 5.5
2017-Jul-20 06:31N 55°17' E 014°45'0 0.7
2017-Jul-20 05:56N 55°16' E 014°45'0 0.0
2017-Jul-20 05:26N 55°16' E 014°45'0 0.0
2017-Jul-20 04:59N 55°16' E 014°45'0 0.0
2017-Jul-20 04:29N 55°16' E 014°45'0 0.0
2017-Jul-20 03:59N 55°16' E 014°45'0 0.0
2017-Jul-20 03:30N 55°16' E 014°45'1 1.1
2017-Jul-20 03:00N 55°16' E 014°44'2 5.0
2017-Jul-20 02:30N 55°15' E 014°40'3 5.6
2017-Jul-20 02:01N 55°13' E 014°36'3 5.7
2017-Jul-20 01:30N 55°12' E 014°32'3 5.4
2017-Jul-20 01:01N 55°10' E 014°28'2 4.8
2017-Jul-20 00:31N 55°10' E 014°24'2 4.9
2017-Jul-20 00:00N 55°10' E 014°20'2 4.9
2017-Jul-19 23:30N 55°10' E 014°15'2 4.9
2017-Jul-19 23:00N 55°10' E 014°11'2 4.8
2017-Jul-19 22:30N 55°11' E 014°07'2 5.0
2017-Jul-19 22:00N 55°11' E 014°02'3 5.0
2017-Jul-19 21:30N 55°11' E 013°58'3 5.1
2017-Jul-19 21:01N 55°11' E 013°54'3 5.6
2017-Jul-19 20:29N 55°11' E 013°48'3 5.4
2017-Jul-19 19:58N 55°11' E 013°44'2 5.1
2017-Jul-19 19:30N 55°12' E 013°40'4 5.4
2017-Jul-19 18:50N 55°12' E 013°33'2 5.7
2017-Jul-19 18:30N 55°12' E 013°30'4 5.7
2017-Jul-19 17:50N 55°12' E 013°23'2 5.8
2017-Jul-19 17:30N 55°12' E 013°20'3 5.9
2017-Jul-19 16:55N 55°12' E 013°14'2 6.0
2017-Jul-19 16:30N 55°13' E 013°10'3 5.9
2017-Jul-19 16:01N 55°13' E 013°05'3 5.7
2017-Jul-19 15:31N 55°14' E 012°60'3 5.7
2017-Jul-19 15:00N 55°14' E 012°55'3 5.8
2017-Jul-19 14:30N 55°15' E 012°50'3 5.8
2017-Jul-19 14:00N 55°17' E 012°45'3 5.7
2017-Jul-19 13:30N 55°18' E 012°41'3 5.1
2017-Jul-19 13:00N 55°20' E 012°38'3 5.5
2017-Jul-19 12:30N 55°22' E 012°38'2 5.0
2017-Jul-19 12:00N 55°25' E 012°39'3 5.1
2017-Jul-19 11:30N 55°27' E 012°40'3 5.1
2017-Jul-19 11:00N 55°29' E 012°42'3 6.1
2017-Jul-19 10:30N 55°32' E 012°45'3 6.0
2017-Jul-19 10:00N 55°34' E 012°49'3 5.6
2017-Jul-19 09:30N 55°36' E 012°52'3 5.7
2017-Jul-19 09:00N 55°38' E 012°57'2 2.8
2017-Jul-19 08:20N 55°37' E 012°60'0 0.0
2017-Jul-19 07:59N 55°37' E 012°60'0 0.0
2017-Jul-19 07:29N 55°37' E 012°60'0 0.0
2017-Jul-19 06:56N 55°37' E 012°60'0 0.0
2017-Jul-19 06:26N 55°37' E 012°60'0 0.0
2017-Jul-19 05:56N 55°37' E 012°60'0 0.0
2017-Jul-19 05:26N 55°37' E 012°60'0 0.0
2017-Jul-19 04:56N 55°37' E 012°60'0 0.0
2017-Jul-19 04:29N 55°37' E 012°60'0 0.0
2017-Jul-19 03:59N 55°37' E 012°60'0 0.0
2017-Jul-19 03:26N 55°37' E 012°60'0 0.0
2017-Jul-19 02:56N 55°37' E 012°60'0 0.0
2017-Jul-19 02:23N 55°37' E 012°60'0 0.0
2017-Jul-19 01:56N 55°37' E 012°60'0 0.0
2017-Jul-19 01:29N 55°37' E 012°60'0 0.0
2017-Jul-19 00:50N 55°37' E 012°60'0 0.0
2017-Jul-19 00:29N 55°37' E 012°60'0 0.0
2017-Jul-18 23:59N 55°37' E 012°60'0 0.0
2017-Jul-18 23:29N 55°37' E 012°60'0 0.0
2017-Jul-18 22:59N 55°37' E 012°60'0 0.0
2017-Jul-18 22:29N 55°37' E 012°60'0 0.0
2017-Jul-18 21:53N 55°37' E 012°60'0 0.0
2017-Jul-18 21:29N 55°37' E 012°60'0 0.0
2017-Jul-18 20:59N 55°37' E 012°60'0 0.0
2017-Jul-18 20:29N 55°37' E 012°60'0 0.0
2017-Jul-18 19:59N 55°37' E 012°60'0 0.0
2017-Jul-18 19:29N 55°37' E 012°60'0 0.0
2017-Jul-18 18:53N 55°37' E 012°60'0 0.0
2017-Jul-18 18:29N 55°37' E 012°60'0 0.0
2017-Jul-18 17:59N 55°37' E 012°60'0 0.0
2017-Jul-18 17:26N 55°37' E 012°60'0 0.0
2017-Jul-18 16:56N 55°37' E 012°60'0 0.0
2017-Jul-18 16:29N 55°37' E 012°60'0 0.0
2017-Jul-18 15:56N 55°37' E 012°60'0 0.0
2017-Jul-18 15:29N 55°37' E 012°60'0 0.0
2017-Jul-18 14:59N 55°37' E 012°60'0 0.0
2017-Jul-18 13:59N 55°37' E 012°60'0 0.0
2017-Jul-18 13:29N 55°37' E 012°60'0 0.0
2017-Jul-18 12:59N 55°37' E 012°60'0 0.0
2017-Jul-18 12:26N 55°37' E 012°60'0 0.0
2017-Jul-18 11:59N 55°37' E 012°60'0 0.0
2017-Jul-18 11:26N 55°37' E 012°60'0 0.0
2017-Jul-18 10:59N 55°37' E 012°60'0 0.0
2017-Jul-18 10:29N 55°37' E 012°60'0 0.0
2017-Jul-18 09:56N 55°37' E 012°60'0 0.0
2017-Jul-18 09:29N 55°37' E 012°60'0 0.0
2017-Jul-18 08:53N 55°37' E 012°60'0 0.0
2017-Jul-18 08:29N 55°37' E 012°60'0 0.0
2017-Jul-18 07:56N 55°37' E 012°60'0 0.0
2017-Jul-18 07:29N 55°37' E 012°60'0 0.0
2017-Jul-18 06:59N 55°37' E 012°60'  
Track history (hours):
 
Tides and Currents Weather Stations Pressure Air Temp Water Temp Dewpoint Dewpoint Depression Visibility Wind Speed Wind Dir Waves Ship Positions

Thor Heyerdahl

Last reported at 2017-Jul-28 06:30 UTC. Time now 2017-Jul-28 06:38 UTC.
Position N 60°00' E 024°57'.

beam 6.5 m; draft 2.2 m.

Type: Sailing vessel. MMSI: 211232340.

Date/timePositionNaut miles runAvg speedWind from/ knotsBaromVisibWave heightAir tempDewpointWater temp
2017-Jul-28 06:30N 60°00' E 024°57'1 2.3
2017-Jul-28 06:00N 59°59' E 024°57'1 2.2
2017-Jul-28 05:31N 59°58' E 024°57'1 2.2
2017-Jul-28 05:00N 59°57' E 024°57'1 2.1
2017-Jul-28 04:30N 59°56' E 024°57'1 2.0
2017-Jul-28 04:00N 59°55' E 024°57'1 2.2
2017-Jul-28 03:30N 59°54' E 024°57'1 2.8
2017-Jul-28 03:00N 59°53' E 024°57'1 2.7
2017-Jul-28 02:31N 59°51' E 024°58'1 2.5
2017-Jul-28 02:00N 59°50' E 024°58'2 4.7
2017-Jul-28 01:30N 59°48' E 024°56'2 4.3
2017-Jul-28 01:00N 59°47' E 024°52'2 4.4
2017-Jul-28 00:30N 59°46' E 024°48'2 4.2
2017-Jul-28 00:01N 59°45' E 024°44'2 4.1
2017-Jul-27 23:31N 59°45' E 024°41'2 4.0
2017-Jul-27 23:00N 59°44' E 024°37'2 4.3
2017-Jul-27 22:30N 59°43' E 024°33'2 4.3
2017-Jul-27 22:01N 59°42' E 024°30'2 4.1
2017-Jul-27 21:30N 59°40' E 024°27'2 4.2
2017-Jul-27 21:00N 59°39' E 024°23'2 4.6
2017-Jul-27 20:31N 59°38' E 024°19'2 4.5
2017-Jul-27 20:00N 59°36' E 024°16'3 5.2
2017-Jul-27 19:31N 59°35' E 024°12'2 4.6
2017-Jul-27 19:00N 59°33' E 024°09'3 5.5
2017-Jul-27 18:30N 59°31' E 024°05'3 5.9
2017-Jul-27 18:00N 59°29' E 024°01'3 5.7
2017-Jul-27 17:30N 59°27' E 023°57'3 5.5
2017-Jul-27 17:00N 59°25' E 023°53'2 4.9
2017-Jul-27 16:30N 59°24' E 023°49'2 4.8
2017-Jul-27 16:01N 59°22' E 023°46'2 4.5
2017-Jul-27 15:31N 59°20' E 023°43'3 5.0
2017-Jul-27 15:00N 59°19' E 023°39'5 5.0
2017-Jul-27 14:00N 59°16' E 023°31'2 4.7
2017-Jul-27 13:31N 59°14' E 023°27'2 4.7
2017-Jul-27 13:00N 59°14' E 023°23'3 5.2
2017-Jul-27 12:31N 59°13' E 023°18'2 5.0
2017-Jul-27 12:00N 59°11' E 023°14'2 4.7
2017-Jul-27 11:30N 59°10' E 023°10'2 4.8
2017-Jul-27 11:00N 59°09' E 023°06'2 4.4
2017-Jul-27 10:30N 59°07' E 023°03'2 5.0
2017-Jul-27 10:01N 59°05' E 023°02'3 5.1
2017-Jul-27 09:30N 59°03' E 023°04'3 5.1
2017-Jul-27 09:00N 59°00' E 023°07'0 0.8
2017-Jul-27 08:30N 59°00' E 023°07'0 0.0
2017-Jul-27 08:00N 59°00' E 023°07'0 0.0
2017-Jul-27 07:28N 59°00' E 023°07'0 0.0
2017-Jul-27 07:00N 59°00' E 023°07'0 0.0
2017-Jul-27 06:24N 59°00' E 023°07'0 0.0
2017-Jul-27 06:00N 59°00' E 023°07'0 0.0
2017-Jul-27 05:30N 59°00' E 023°07'0 0.0
2017-Jul-27 04:57N 59°00' E 023°07'0 0.0
2017-Jul-27 04:27N 59°00' E 023°07'0 0.0
2017-Jul-27 03:57N 59°00' E 023°07'0 0.0
2017-Jul-27 03:24N 59°00' E 023°07'0 0.0
2017-Jul-27 02:52N 59°00' E 023°07'0 0.0
2017-Jul-27 02:25N 59°00' E 023°07'0 0.0
2017-Jul-27 02:00N 59°00' E 023°07'0 0.0
2017-Jul-27 01:24N 59°00' E 023°07'0 0.0
2017-Jul-27 01:00N 59°00' E 023°07'0 0.0
2017-Jul-27 00:29N 59°00' E 023°07'0 0.0
2017-Jul-27 00:00N 59°00' E 023°07'0 0.0
2017-Jul-26 23:24N 59°00' E 023°07'0 0.0
2017-Jul-26 22:51N 59°00' E 023°07'0 0.0
2017-Jul-26 22:30N 59°00' E 023°07'0 0.0
2017-Jul-26 22:00N 59°00' E 023°07'0 0.0
2017-Jul-26 21:30N 59°00' E 023°07'0 0.0
2017-Jul-26 20:58N 59°00' E 023°07'0 0.0
2017-Jul-26 20:30N 59°00' E 023°07'0 0.0
2017-Jul-26 19:58N 59°00' E 023°07'0 0.0
2017-Jul-26 19:25N 59°00' E 023°07'0 0.0
2017-Jul-26 19:00N 59°00' E 023°07'0 0.0
2017-Jul-26 18:27N 59°00' E 023°07'0 0.0
2017-Jul-26 17:54N 59°00' E 023°07'0 0.0
2017-Jul-26 17:27N 59°00' E 023°07'0 0.0
2017-Jul-26 16:57N 59°00' E 023°07'0 0.0
2017-Jul-26 16:31N 59°00' E 023°07'0 0.3
2017-Jul-26 16:00N 59°00' E 023°07'2 4.4
2017-Jul-26 15:30N 58°58' E 023°07'2 4.6
2017-Jul-26 15:00N 58°56' E 023°08'4 4.2
2017-Jul-26 14:00N 58°52' E 023°11'2 4.2
2017-Jul-26 13:31N 58°50' E 023°12'2 4.2
2017-Jul-26 13:00N 58°48' E 023°13'2 4.3
2017-Jul-26 12:31N 58°46' E 023°15'2 4.2
2017-Jul-26 12:01N 58°44' E 023°16'3 4.8
2017-Jul-26 11:29N 58°41' E 023°17'  
2017-Jul-24 01:12N 56°57' E 024°06'0 0.0
2017-Jul-24 00:58N 56°57' E 024°06'0 0.0
2017-Jul-24 00:24N 56°57' E 024°06'0 0.0
2017-Jul-24 00:00N 56°57' E 024°06'0 0.0
2017-Jul-23 23:25N 56°57' E 024°06'0 0.0
2017-Jul-23 22:57N 56°57' E 024°06'0 0.0
2017-Jul-23 22:28N 56°57' E 024°06'0 0.0
2017-Jul-23 21:58N 56°57' E 024°06'0 0.0
2017-Jul-23 21:26N 56°57' E 024°06'0 0.0
2017-Jul-23 20:59N 56°57' E 024°06'35 2.3
2017-Jul-23 05:49N 57°22' E 023°22'10 2.5
2017-Jul-23 01:45N 57°30' E 023°09'1 3.2
2017-Jul-23 01:30N 57°31' E 023°08'3 3.6
2017-Jul-23 00:40N 57°33' E 023°04'1 4.1
2017-Jul-23 00:25N 57°34' E 023°03'2 4.0
2017-Jul-23 00:00N 57°35' E 023°01'2 4.9
2017-Jul-22 23:30N 57°37' E 022°59'2 4.6
2017-Jul-22 23:00N 57°39' E 022°56'2 4.0
2017-Jul-22 22:30N 57°40' E 022°53'2 3.6
2017-Jul-22 22:00N 57°42' E 022°51'2 3.4
2017-Jul-22 21:30N 57°43' E 022°49'1 2.9
2017-Jul-22 21:00N 57°44' E 022°47'1 1.6
2017-Jul-22 20:30N 57°44' E 022°46'1 2.3
2017-Jul-22 20:00N 57°45' E 022°45'1 2.9
2017-Jul-22 19:31N 57°46' E 022°43'1 2.8
2017-Jul-22 19:00N 57°47' E 022°41'169 4.9
2017-Jul-21 08:24N 56°35' E 017°59'2 5.5
2017-Jul-21 08:00N 56°33' E 017°56'3 5.6
2017-Jul-21 07:30N 56°32' E 017°52'3 5.4
2017-Jul-21 07:01N 56°30' E 017°48'3 5.3
2017-Jul-21 06:30N 56°28' E 017°44'3 5.1
2017-Jul-21 06:00N 56°27' E 017°41'2 4.9
2017-Jul-21 05:30N 56°25' E 017°37'2 4.8
2017-Jul-21 05:01N 56°24' E 017°34'2 4.9
2017-Jul-21 04:30N 56°22' E 017°30'3 5.4
2017-Jul-21 04:00N 56°21' E 017°26'3 5.7
2017-Jul-21 03:27N 56°19' E 017°22'3 5.6
2017-Jul-21 03:01N 56°17' E 017°18'3 6.0
2017-Jul-21 02:31N 56°15' E 017°14'3 5.8
2017-Jul-21 02:00N 56°13' E 017°10'3 5.7
2017-Jul-21 01:30N 56°12' E 017°06'3 5.7
2017-Jul-21 01:00N 56°10' E 017°02'3 5.8
2017-Jul-21 00:30N 56°09' E 016°57'3 5.9
2017-Jul-21 00:00N 56°07' E 016°53'3 6.1
2017-Jul-20 23:30N 56°05' E 016°48'3 6.1
2017-Jul-20 23:00N 56°04' E 016°44'3 6.0
2017-Jul-20 22:30N 56°02' E 016°39'3 5.9
2017-Jul-20 22:00N 56°00' E 016°35'3 5.8
2017-Jul-20 21:30N 55°59' E 016°31'3 5.7
2017-Jul-20 21:00N 55°57' E 016°27'3 5.6
2017-Jul-20 20:30N 55°55' E 016°23'3 5.6
2017-Jul-20 20:00N 55°54' E 016°19'3 5.6
2017-Jul-20 19:30N 55°52' E 016°15'3 5.5
2017-Jul-20 19:00N 55°50' E 016°11'3 5.3
2017-Jul-20 18:30N 55°48' E 016°07'2 4.8
2017-Jul-20 18:00N 55°47' E 016°04'2 4.6
2017-Jul-20 17:30N 55°46' E 016°01'2 4.5
2017-Jul-20 17:00N 55°44' E 015°57'2 4.5
2017-Jul-20 16:30N 55°43' E 015°54'2 4.4
2017-Jul-20 16:00N 55°42' E 015°51'2 4.5
2017-Jul-20 15:30N 55°40' E 015°48'2 4.6
2017-Jul-20 15:01N 55°39' E 015°44'5 4.6
2017-Jul-20 14:00N 55°36' E 015°38'2 4.3
2017-Jul-20 13:30N 55°35' E 015°35'2 4.1
2017-Jul-20 13:00N 55°34' E 015°31'2 4.3
2017-Jul-20 12:30N 55°33' E 015°28'2 4.7
2017-Jul-20 12:00N 55°32' E 015°25'2 4.8
2017-Jul-20 11:30N 55°30' E 015°21'2 4.7
2017-Jul-20 11:00N 55°29' E 015°18'2 4.7
2017-Jul-20 10:30N 55°28' E 015°14'2 4.9
2017-Jul-20 10:00N 55°26' E 015°11'2 4.9
2017-Jul-20 09:31N 55°25' E 015°07'2 4.9
2017-Jul-20 09:00N 55°24' E 015°04'2 4.6
2017-Jul-20 08:31N 55°23' E 015°00'2 5.0
2017-Jul-20 08:01N 55°21' E 014°56'3 5.5
2017-Jul-20 07:30N 55°20' E 014°52'3 5.6
2017-Jul-20 07:00N 55°19' E 014°48'3 5.5
2017-Jul-20 06:31N 55°17' E 014°45'0 0.7
2017-Jul-20 05:56N 55°16' E 014°45'0 0.0
2017-Jul-20 05:26N 55°16' E 014°45'0 0.0
2017-Jul-20 04:59N 55°16' E 014°45'0 0.0
2017-Jul-20 04:29N 55°16' E 014°45'0 0.0
2017-Jul-20 03:59N 55°16' E 014°45'0 0.0
2017-Jul-20 03:30N 55°16' E 014°45'1 1.1
2017-Jul-20 03:00N 55°16' E 014°44'2 5.0
2017-Jul-20 02:30N 55°15' E 014°40'3 5.6
2017-Jul-20 02:01N 55°13' E 014°36'3 5.7
2017-Jul-20 01:30N 55°12' E 014°32'3 5.4
2017-Jul-20 01:01N 55°10' E 014°28'2 4.8
2017-Jul-20 00:31N 55°10' E 014°24'2 4.9
2017-Jul-20 00:00N 55°10' E 014°20'2 4.9
2017-Jul-19 23:30N 55°10' E 014°15'2 4.9
2017-Jul-19 23:00N 55°10' E 014°11'2 4.8
2017-Jul-19 22:30N 55°11' E 014°07'2 5.0
2017-Jul-19 22:00N 55°11' E 014°02'3 5.0
2017-Jul-19 21:30N 55°11' E 013°58'3 5.1
2017-Jul-19 21:01N 55°11' E 013°54'3 5.6
2017-Jul-19 20:29N 55°11' E 013°48'3 5.4
2017-Jul-19 19:58N 55°11' E 013°44'2 5.1
2017-Jul-19 19:30N 55°12' E 013°40'4 5.4
2017-Jul-19 18:50N 55°12' E 013°33'2 5.7
2017-Jul-19 18:30N 55°12' E 013°30'4 5.7
2017-Jul-19 17:50N 55°12' E 013°23'2 5.8
2017-Jul-19 17:30N 55°12' E 013°20'3 5.9
2017-Jul-19 16:55N 55°12' E 013°14'2 6.0
2017-Jul-19 16:30N 55°13' E 013°10'3 5.9
2017-Jul-19 16:01N 55°13' E 013°05'3 5.7
2017-Jul-19 15:31N 55°14' E 012°60'3 5.7
2017-Jul-19 15:00N 55°14' E 012°55'3 5.8
2017-Jul-19 14:30N 55°15' E 012°50'3 5.8
2017-Jul-19 14:00N 55°17' E 012°45'3 5.7
2017-Jul-19 13:30N 55°18' E 012°41'3 5.1
2017-Jul-19 13:00N 55°20' E 012°38'3 5.5
2017-Jul-19 12:30N 55°22' E 012°38'2 5.0
2017-Jul-19 12:00N 55°25' E 012°39'3 5.1
2017-Jul-19 11:30N 55°27' E 012°40'3 5.1
2017-Jul-19 11:00N 55°29' E 012°42'3 6.1
2017-Jul-19 10:30N 55°32' E 012°45'3 6.0
2017-Jul-19 10:00N 55°34' E 012°49'3 5.6
2017-Jul-19 09:30N 55°36' E 012°52'3 5.7
2017-Jul-19 09:00N 55°38' E 012°57'2 2.8
2017-Jul-19 08:20N 55°37' E 012°60'0 0.0
2017-Jul-19 07:59N 55°37' E 012°60'0 0.0
2017-Jul-19 07:29N 55°37' E 012°60'0 0.0
2017-Jul-19 06:56N 55°37' E 012°60'0 0.0
2017-Jul-19 06:26N 55°37' E 012°60'0 0.0
2017-Jul-19 05:56N 55°37' E 012°60'0 0.0
2017-Jul-19 05:26N 55°37' E 012°60'0 0.0
2017-Jul-19 04:56N 55°37' E 012°60'0 0.0
2017-Jul-19 04:29N 55°37' E 012°60'0 0.0
2017-Jul-19 03:59N 55°37' E 012°60'0 0.0
2017-Jul-19 03:26N 55°37' E 012°60'0 0.0
2017-Jul-19 02:56N 55°37' E 012°60'0 0.0
2017-Jul-19 02:23N 55°37' E 012°60'0 0.0
2017-Jul-19 01:56N 55°37' E 012°60'0 0.0
2017-Jul-19 01:29N 55°37' E 012°60'0 0.0
2017-Jul-19 00:50N 55°37' E 012°60'0 0.0
2017-Jul-19 00:29N 55°37' E 012°60'0 0.0
2017-Jul-18 23:59N 55°37' E 012°60'0 0.0
2017-Jul-18 23:29N 55°37' E 012°60'0 0.0
2017-Jul-18 22:59N 55°37' E 012°60'0 0.0
2017-Jul-18 22:29N 55°37' E 012°60'0 0.0
2017-Jul-18 21:53N 55°37' E 012°60'0 0.0
2017-Jul-18 21:29N 55°37' E 012°60'0 0.0
2017-Jul-18 20:59N 55°37' E 012°60'0 0.0
2017-Jul-18 20:29N 55°37' E 012°60'0 0.0
2017-Jul-18 19:59N 55°37' E 012°60'0 0.0
2017-Jul-18 19:29N 55°37' E 012°60'0 0.0
2017-Jul-18 18:53N 55°37' E 012°60'0 0.0
2017-Jul-18 18:29N 55°37' E 012°60'0 0.0
2017-Jul-18 17:59N 55°37' E 012°60'0 0.0
2017-Jul-18 17:26N 55°37' E 012°60'0 0.0
2017-Jul-18 16:56N 55°37' E 012°60'0 0.0
2017-Jul-18 16:29N 55°37' E 012°60'0 0.0
2017-Jul-18 15:56N 55°37' E 012°60'0 0.0
2017-Jul-18 15:29N 55°37' E 012°60'0 0.0
2017-Jul-18 14:59N 55°37' E 012°60'0 0.0
2017-Jul-18 13:59N 55°37' E 012°60'0 0.0
2017-Jul-18 13:29N 55°37' E 012°60'0 0.0
2017-Jul-18 12:59N 55°37' E 012°60'0 0.0
2017-Jul-18 12:26N 55°37' E 012°60'0 0.0
2017-Jul-18 11:59N 55°37' E 012°60'0 0.0
2017-Jul-18 11:26N 55°37' E 012°60'0 0.0
2017-Jul-18 10:59N 55°37' E 012°60'0 0.0
2017-Jul-18 10:29N 55°37' E 012°60'0 0.0
2017-Jul-18 09:56N 55°37' E 012°60'0 0.0
2017-Jul-18 09:29N 55°37' E 012°60'0 0.0
2017-Jul-18 08:53N 55°37' E 012°60'0 0.0
2017-Jul-18 08:29N 55°37' E 012°60'0 0.0
2017-Jul-18 07:56N 55°37' E 012°60'0 0.0
2017-Jul-18 07:29N 55°37' E 012°60'0 0.0
2017-Jul-18 06:59N 55°37' E 012°60'  

Dump ship's entire track history